首页
METAR-TAF:

METAR-TAF

机场 :

巴特爾克里克, 密歇根州, 美国

纬度: 42-18-45N, 经度: 085-14-27W, 海拔: 290米

当前天气观测

该预报发布于42分钟前的14:53 UTC
风速5节,风向东北
温度 23°C
湿度 69%
气压 1015 hPa
能見度: 16.1公里
多云层高于1800英尺
多云层高于3400英尺
多云层高于5000英尺

METAR: KBTL 181453Z 05005KT 10SM BKN018 BKN034 BKN050 23/17 A2997 RMK AO2 SLP144 T02330172 58004

时间: 11:35 (15:35 UTC)

预报

该预报发布于1小时和49分钟前的13:46 UTC
预报有效从18日的 14点(UTC)到 19日的 12点(UTC)
风速3节,风向多变
能見度: 10公里
多云层高于1000英尺
从 18日的 1500点(UTC)
风速4节,风向
能見度: 10公里
多云层高于3500英尺
从 18日的 2100点(UTC)
风速5节,风向西
能見度: 10公里
多云层高于3500英尺
从 19日的 0600点(UTC)
风速节,风向
能見度: 8.0公里
散云层高于8000英尺
轻雾
从 19日的 0900点(UTC)
风速节,风向
能見度: 3.2公里
多云层高于2500英尺
轻雾

TAF: KBTL 181346Z 1814/1912 VRB03KT P6SM BKN010 FM181500 19004KT P6SM BKN035 FM182100 28005KT P6SM BKN035 FM190600 00000KT 5SM BR SCT080 FM190900 00000KT 2SM BR BKN025

超过4000个机场的气象观测和天气预报(METAR&TAF报告)。

可查询的气象台以黄色和红色小点在地图上表示。

将鼠标移到小点上方,可查看气象台名称。

然后点击查看天气观测和预报。

如需切换地图:点击带黑十字的绿色按钮放大地图;点击带横线的绿色按钮缩小地图;或者点击绿色箭头查看邻近地区的地图。


METAR-TAF: